Time;durP1;ratioP1;P1;durP2;ratioP2;P2;SDS_P1;SDS_P2;PMS_P1;PMS_P2;Temp;Humidity;BMP_temperature;BMP_pressure;BME280_temperature;BME280_humidity;BME280_pressure;Samples;Min_cycle;Max_cycle;Signal;HPM_P1;HPM_P2
2023/07/19 00:00:09;;;;;;;3.38;1.60;;;19.80;88.50;;;;;;5094732;28;20497;-71
2023/07/19 00:02:34;;;;;;;3.78;1.70;;;19.80;88.60;;;;;;5094640;28;20052;-71
2023/07/19 00:05:00;;;;;;;4.35;1.80;;;19.70;88.60;;;;;;5094465;28;20044;-71
2023/07/19 00:07:25;;;;;;;3.15;1.55;;;19.70;88.70;;;;;;5094082;28;20047;-71
2023/07/19 00:09:51;;;;;;;3.90;1.73;;;19.70;88.60;;;;;;5094294;28;20389;-71
2023/07/19 00:12:17;;;;;;;3.33;1.58;;;19.70;88.80;;;;;;5076196;28;20048;-71
2023/07/19 00:14:43;;;;;;;4.18;1.85;;;19.60;88.70;;;;;;5094336;28;20054;-71
2023/07/19 00:17:08;;;;;;;3.38;1.60;;;19.60;89.00;;;;;;5094154;28;20123;-71
2023/07/19 00:19:34;;;;;;;4.93;2.10;;;19.50;89.00;;;;;;5094244;28;20561;-71
2023/07/19 00:22:00;;;;;;;4.28;1.90;;;19.50;89.10;;;;;;5075818;28;20131;-71
2023/07/19 00:24:25;;;;;;;3.67;1.80;;;19.50;89.10;;;;;;5093684;28;20066;-71
2023/07/19 00:26:51;;;;;;;3.42;1.60;;;19.50;89.20;;;;;;5093700;28;20497;-71
2023/07/19 00:29:17;;;;;;;4.93;1.85;;;19.50;89.20;;;;;;5094099;28;20056;-72
2023/07/19 00:31:43;;;;;;;5.18;1.92;;;19.40;89.10;;;;;;5092289;28;20052;-72
2023/07/19 00:34:09;;;;;;;4.28;1.98;;;19.40;89.20;;;;;;5092824;28;20097;-72
2023/07/19 00:36:34;;;;;;;4.63;2.10;;;19.40;89.30;;;;;;5092803;28;20663;-72
2023/07/19 00:39:00;;;;;;;3.88;1.80;;;19.40;89.40;;;;;;5092943;28;20040;-72
2023/07/19 00:41:26;;;;;;;4.25;1.83;;;19.30;89.30;;;;;;5093378;28;20044;-72
2023/07/19 00:43:51;;;;;;;3.67;1.65;;;19.30;89.20;;;;;;5093772;28;20046;-72
2023/07/19 00:46:19;;;;;;;3.78;1.83;;;19.30;89.40;;;;;;5075592;28;20044;-72
2023/07/19 00:48:45;;;;;;;4.95;1.90;;;19.30;89.40;;;;;;5093456;28;20149;-72
2023/07/19 00:51:11;;;;;;;4.53;2.10;;;19.20;89.40;;;;;;5093415;28;20048;-72
2023/07/19 00:53:38;;;;;;;4.05;2.03;;;19.30;89.70;;;;;;5093726;28;20098;-72
2023/07/19 00:56:04;;;;;;;5.45;1.95;;;19.20;89.70;;;;;;5093676;28;20064;-72
2023/07/19 00:58:31;;;;;;;4.97;2.15;;;19.20;89.70;;;;;;5058792;28;20141;-72
2023/07/19 01:00:58;;;;;;;3.97;1.80;;;19.20;89.70;;;;;;5092945;28;20054;-72
2023/07/19 01:03:24;;;;;;;4.75;2.00;;;19.20;89.70;;;;;;5093408;28;20059;-72
2023/07/19 01:05:50;;;;;;;4.93;2.10;;;19.10;89.70;;;;;;5092882;28;20043;-72
2023/07/19 01:08:18;;;;;;;4.18;1.60;;;19.10;89.60;;;;;;5093076;28;20498;-72
2023/07/19 01:10:44;;;;;;;4.32;1.95;;;19.10;89.70;;;;;;5092699;28;20052;-72
2023/07/19 01:13:11;;;;;;;4.40;1.80;;;19.10;89.30;;;;;;5092736;28;20123;-72
2023/07/19 01:15:38;;;;;;;4.15;1.80;;;19.10;89.70;;;;;;5092721;28;20082;-72
2023/07/19 01:18:04;;;;;;;4.50;1.98;;;19.00;89.70;;;;;;5092349;28;20072;-72
2023/07/19 01:20:30;;;;;;;5.07;2.20;;;19.00;89.80;;;;;;5092726;28;20043;-72
2023/07/19 01:22:56;;;;;;;5.15;1.98;;;19.00;89.90;;;;;;5092759;28;20126;-72
2023/07/19 01:25:23;;;;;;;4.00;1.60;;;19.00;89.70;;;;;;5093119;28;20043;-72
2023/07/19 01:27:49;;;;;;;4.70;2.13;;;19.00;90.00;;;;;;5093044;28;20083;-72
2023/07/19 01:30:15;;;;;;;5.32;2.20;;;18.90;90.00;;;;;;5092447;28;20052;-72
2023/07/19 01:32:41;;;;;;;3.78;1.98;;;18.90;90.00;;;;;;5092643;28;20052;-72
2023/07/19 01:35:07;;;;;;;3.85;1.90;;;18.90;90.00;;;;;;5092647;28;20044;-71
2023/07/19 01:37:33;;;;;;;4.13;1.92;;;18.90;90.10;;;;;;5092895;28;20092;-72
2023/07/19 01:40:00;;;;;;;3.97;1.83;;;18.80;90.00;;;;;;5093313;28;20130;-74
2023/07/19 01:42:26;;;;;;;4.50;2.08;;;18.80;90.10;;;;;;5092355;28;20040;-73
2023/07/19 01:44:53;;;;;;;4.63;1.92;;;18.80;90.10;;;;;;5089679;28;20593;-72
2023/07/19 01:47:18;;;;;;;5.05;1.83;;;18.70;90.10;;;;;;5092526;28;20073;-72
2023/07/19 01:49:44;;;;;;;4.35;1.83;;;18.70;90.20;;;;;;5074023;28;20112;-72
2023/07/19 01:52:10;;;;;;;5.10;2.00;;;18.70;90.30;;;;;;5080930;28;20094;-72
2023/07/19 01:54:35;;;;;;;5.70;2.03;;;18.70;90.30;;;;;;5060081;28;20499;-71
2023/07/19 01:57:04;;;;;;;4.45;2.10;;;18.70;90.40;;;;;;5076697;28;20048;-71
2023/07/19 01:59:30;;;;;;;4.32;1.63;;;18.70;90.40;;;;;;5084408;28;20032;-72
2023/07/19 02:01:56;;;;;;;3.42;1.70;;;18.70;90.40;;;;;;5076712;28;20044;-72
2023/07/19 02:04:22;;;;;;;3.97;1.75;;;18.60;90.40;;;;;;5061908;28;20052;-71
2023/07/19 02:06:48;;;;;;;4.35;2.17;;;18.60;90.40;;;;;;5077525;28;20226;-72
2023/07/19 02:09:14;;;;;;;4.40;2.08;;;18.60;90.40;;;;;;5058602;28;20173;-71
2023/07/19 02:11:40;;;;;;;4.47;1.92;;;18.60;90.40;;;;;;5076615;28;20060;-71
2023/07/19 02:14:09;;;;;;;6.45;2.03;;;18.60;90.30;;;;;;5085567;28;20078;-71
2023/07/19 02:16:35;;;;;;;4.78;1.75;;;18.60;90.40;;;;;;5081566;28;20072;-72
2023/07/19 02:19:05;;;;;;;3.65;1.90;;;18.60;90.40;;;;;;5076428;28;20087;-71
2023/07/19 02:21:31;;;;;;;4.93;1.90;;;18.60;90.50;;;;;;5062329;28;20405;-71
2023/07/19 02:23:57;;;;;;;4.43;1.88;;;18.60;90.30;;;;;;5079297;28;20040;-71
2023/07/19 02:26:23;;;;;;;5.32;2.10;;;18.50;90.20;;;;;;5094876;28;20044;-71
2023/07/19 02:28:49;;;;;;;3.65;1.85;;;18.50;90.40;;;;;;5095145;28;20066;-71
2023/07/19 02:31:15;;;;;;;4.85;2.08;;;18.50;90.40;;;;;;5062406;28;20040;-71
2023/07/19 02:33:40;;;;;;;4.43;1.92;;;18.50;90.50;;;;;;5076062;28;20086;-71
2023/07/19 02:36:06;;;;;;;4.13;1.95;;;18.50;90.50;;;;;;5078308;28;20055;-71
2023/07/19 02:38:32;;;;;;;4.65;1.90;;;18.50;90.30;;;;;;5075934;28;20084;-71
2023/07/19 02:41:01;;;;;;;3.45;1.83;;;18.50;90.30;;;;;;5057933;28;20052;-71
2023/07/19 02:43:28;;;;;;;5.13;2.25;;;18.40;90.40;;;;;;5075651;28;20419;-71
2023/07/19 02:45:54;;;;;;;4.43;2.03;;;18.40;90.40;;;;;;5077796;28;20097;-71
2023/07/19 02:48:20;;;;;;;4.85;2.35;;;18.40;90.40;;;;;;5075704;28;20048;-71
2023/07/19 02:50:47;;;;;;;4.07;2.25;;;18.30;90.50;;;;;;5075690;28;20394;-71
2023/07/19 02:53:13;;;;;;;4.53;2.00;;;18.30;90.60;;;;;;5075524;28;20483;-71
2023/07/19 02:55:39;;;;;;;4.18;2.00;;;18.40;90.40;;;;;;5082381;28;20509;-71
2023/07/19 02:58:05;;;;;;;4.32;2.10;;;18.40;90.40;;;;;;5079213;28;20119;-72
2023/07/19 03:00:31;;;;;;;4.60;2.30;;;18.40;90.50;;;;;;5083387;28;20134;-71
2023/07/19 03:02:56;;;;;;;5.25;2.28;;;18.30;90.40;;;;;;5060702;28;20040;-71
2023/07/19 03:05:23;;;;;;;5.22;2.00;;;18.30;90.50;;;;;;5075781;28;20048;-71
2023/07/19 03:07:49;;;;;;;5.15;2.20;;;18.30;90.40;;;;;;5085789;28;20170;-72
2023/07/19 03:10:15;;;;;;;4.85;2.00;;;18.30;90.60;;;;;;5094840;28;20051;-71
2023/07/19 03:12:44;;;;;;;4.63;2.10;;;18.30;90.70;;;;;;5094907;28;20052;-71
2023/07/19 03:15:13;;;;;;;5.47;2.85;;;18.30;90.80;;;;;;5094392;28;20044;-71
2023/07/19 03:17:39;;;;;;;4.28;2.20;;;18.30;90.90;;;;;;5095013;28;20047;-71
2023/07/19 03:20:10;;;;;;;4.32;2.15;;;18.30;90.70;;;;;;5077261;28;20063;-71
2023/07/19 03:22:36;;;;;;;5.03;2.10;;;18.30;90.80;;;;;;5094927;28;20044;-71
2023/07/19 03:25:01;;;;;;;3.90;2.00;;;18.20;90.70;;;;;;5073580;28;20506;-71
2023/07/19 03:27:27;;;;;;;3.55;2.10;;;18.20;90.60;;;;;;5090921;28;20052;-71
2023/07/19 03:29:53;;;;;;;3.72;2.10;;;18.20;90.70;;;;;;5095154;28;20079;-71
2023/07/19 03:32:19;;;;;;;4.60;2.33;;;18.20;90.80;;;;;;5094657;28;20122;-71
2023/07/19 03:34:48;;;;;;;4.90;2.08;;;18.20;91.20;;;;;;5094791;28;20043;-71
2023/07/19 03:37:17;;;;;;;4.43;2.10;;;18.10;90.70;;;;;;5094554;28;20576;-71
2023/07/19 03:39:42;;;;;;;4.65;2.03;;;18.20;90.80;;;;;;5094816;28;20539;-72
2023/07/19 03:42:09;;;;;;;6.72;2.53;;;18.20;90.70;;;;;;5076845;28;20040;-71
2023/07/19 03:44:34;;;;;;;4.40;2.20;;;18.10;90.70;;;;;;5076502;28;20044;-71
2023/07/19 03:47:00;;;;;;;4.50;2.20;;;18.10;90.60;;;;;;5093867;28;20105;-71
2023/07/19 03:49:26;;;;;;;4.75;2.30;;;18.10;90.70;;;;;;5094931;28;20077;-71
2023/07/19 03:51:51;;;;;;;4.88;2.20;;;18.10;90.70;;;;;;5094478;28;20040;-71
2023/07/19 03:54:17;;;;;;;4.43;2.17;;;18.00;90.80;;;;;;5094596;28;20080;-71
2023/07/19 03:56:43;;;;;;;5.43;2.30;;;18.10;90.60;;;;;;5094522;28;20542;-71
2023/07/19 03:59:09;;;;;;;4.90;2.38;;;18.00;90.70;;;;;;5094544;28;20036;-71
2023/07/19 04:01:35;;;;;;;4.32;2.15;;;18.00;90.70;;;;;;5093829;28;20044;-72
2023/07/19 04:04:00;;;;;;;4.80;2.40;;;18.00;90.70;;;;;;5094613;28;20086;-71
2023/07/19 04:06:26;;;;;;;5.22;2.67;;;18.00;90.70;;;;;;5094010;28;20089;-72
2023/07/19 04:08:51;;;;;;;5.10;2.13;;;18.00;90.70;;;;;;5093793;28;20044;-71
2023/07/19 04:11:17;;;;;;;5.38;2.53;;;18.00;90.80;;;;;;5093787;28;20051;-71
2023/07/19 04:13:42;;;;;;;4.75;2.35;;;18.00;90.60;;;;;;5094024;28;20482;-71
2023/07/19 04:16:08;;;;;;;5.10;2.20;;;18.00;90.80;;;;;;5093521;28;20127;-71
2023/07/19 04:18:34;;;;;;;5.60;2.80;;;18.00;90.80;;;;;;5094072;28;20047;-71
2023/07/19 04:21:00;;;;;;;6.40;2.92;;;17.90;90.80;;;;;;5093885;28;20048;-71
2023/07/19 04:23:26;;;;;;;5.40;2.47;;;17.90;90.80;;;;;;5075756;28;20066;-71
2023/07/19 04:25:51;;;;;;;7.25;3.50;;;17.90;90.80;;;;;;5093714;28;20489;-71
2023/07/19 04:28:17;;;;;;;6.85;3.30;;;17.90;91.30;;;;;;5094241;28;20052;-72
2023/07/19 04:30:44;;;;;;;7.38;3.08;;;17.90;91.50;;;;;;5093016;28;20032;-71
2023/07/19 04:33:10;;;;;;;7.63;3.58;;;17.90;91.70;;;;;;5093547;28;20516;-71
2023/07/19 04:35:36;;;;;;;5.80;2.55;;;17.90;91.90;;;;;;5093228;28;20059;-71
2023/07/19 04:38:03;;;;;;;6.20;2.67;;;17.90;91.70;;;;;;5093838;28;20036;-71
2023/07/19 04:40:30;;;;;;;10.90;4.70;;;17.90;91.50;;;;;;5093419;28;20401;-71
2023/07/19 04:42:56;;;;;;;6.30;2.33;;;17.90;92.40;;;;;;5093923;28;20051;-71
2023/07/19 04:45:21;;;;;;;5.57;2.78;;;17.90;91.90;;;;;;5092813;28;20044;-71
2023/07/19 04:47:47;;;;;;;6.20;3.30;;;17.90;91.70;;;;;;5093499;28;20048;-71
2023/07/19 04:50:13;;;;;;;4.80;2.75;;;17.80;91.70;;;;;;5093292;28;20410;-71
2023/07/19 04:52:38;;;;;;;9.40;4.03;;;17.80;91.50;;;;;;5075283;28;20048;-71
2023/07/19 04:55:05;;;;;;;8.60;3.95;;;17.90;92.10;;;;;;5091895;28;20461;-72
2023/07/19 04:57:31;;;;;;;6.32;3.42;;;17.90;92.50;;;;;;5075904;28;20052;-72
2023/07/19 04:59:57;;;;;;;9.18;4.30;;;17.80;92.40;;;;;;5092902;28;20046;-72
2023/07/19 05:02:23;;;;;;;4.82;2.60;;;17.80;92.70;;;;;;5092999;28;20432;-72
2023/07/19 05:04:48;;;;;;;6.53;3.03;;;17.90;92.50;;;;;;5073884;28;20044;-71
2023/07/19 05:07:17;;;;;;;8.35;5.20;;;17.80;92.40;;;;;;5074565;28;20142;-71
2023/07/19 05:09:42;;;;;;;8.82;3.85;;;17.80;93.20;;;;;;5092597;28;20437;-71
2023/07/19 05:12:09;;;;;;;7.28;3.13;;;17.80;93.20;;;;;;5092228;28;20072;-72
2023/07/19 05:14:35;;;;;;;7.28;3.17;;;17.80;92.60;;;;;;5092417;28;20080;-71
2023/07/19 05:17:00;;;;;;;6.60;3.30;;;17.80;92.60;;;;;;5093026;28;20075;-73
2023/07/19 05:19:26;;;;;;;11.10;4.28;;;17.80;92.70;;;;;;5093254;28;20541;-73
2023/07/19 05:21:51;;;;;;;5.45;3.15;;;17.80;92.80;;;;;;5091764;28;20059;-71
2023/07/19 05:24:17;;;;;;;9.13;3.65;;;17.80;93.10;;;;;;5092607;28;20044;-72
2023/07/19 05:26:44;;;;;;;6.32;3.38;;;17.80;92.70;;;;;;5091607;28;20154;-71
2023/07/19 05:29:10;;;;;;;8.40;5.30;;;17.70;92.60;;;;;;5071528;28;20483;-71
2023/07/19 05:31:36;;;;;;;6.45;3.35;;;17.80;93.50;;;;;;5067851;28;20065;-72
2023/07/19 05:34:02;;;;;;;10.98;5.45;;;17.80;93.30;;;;;;5092205;28;20405;-71
2023/07/19 05:36:28;;;;;;;6.03;3.20;;;17.80;93.80;;;;;;5092376;28;20048;-71
2023/07/19 05:38:53;;;;;;;5.25;3.08;;;17.80;92.90;;;;;;5091865;28;20101;-72
2023/07/19 05:41:22;;;;;;;5.68;3.50;;;17.70;92.60;;;;;;5092099;28;20040;-72
2023/07/19 05:43:48;;;;;;;7.63;3.63;;;17.80;92.80;;;;;;5070998;28;20091;-71
2023/07/19 05:46:13;;;;;;;6.63;3.22;;;17.80;92.90;;;;;;5091777;28;20043;-71
2023/07/19 05:48:39;;;;;;;10.25;3.97;;;17.70;93.00;;;;;;5092301;28;20056;-71
2023/07/19 05:51:06;;;;;;;6.40;2.90;;;17.70;93.10;;;;;;5091758;28;20052;-72
2023/07/19 05:53:32;;;;;;;5.85;3.03;;;17.70;92.70;;;;;;5092648;28;20044;-71
2023/07/19 05:55:58;;;;;;;6.97;3.17;;;17.70;92.40;;;;;;5091675;28;20051;-71
2023/07/19 05:58:24;;;;;;;10.82;4.80;;;17.70;92.20;;;;;;5092207;28;20138;-72
2023/07/19 06:00:50;;;;;;;5.65;2.80;;;17.80;93.20;;;;;;5092408;28;20071;-71
2023/07/19 06:03:16;;;;;;;6.53;3.25;;;17.70;92.50;;;;;;5092392;28;20481;-72
2023/07/19 06:05:45;;;;;;;7.53;3.70;;;17.70;92.50;;;;;;5072755;28;20044;-72
2023/07/19 06:08:11;;;;;;;8.00;3.50;;;17.80;92.50;;;;;;5074619;28;20506;-72
2023/07/19 06:10:38;;;;;;;4.57;2.60;;;17.80;92.70;;;;;;5091804;28;20448;-72
2023/07/19 06:13:03;;;;;;;5.88;3.05;;;17.80;92.40;;;;;;5092837;28;20044;-71
2023/07/19 06:15:33;;;;;;;6.07;3.13;;;17.80;92.10;;;;;;5074254;28;20081;-72
2023/07/19 06:17:59;;;;;;;6.40;2.70;;;17.80;92.20;;;;;;5082388;28;20044;-72
2023/07/19 06:20:26;;;;;;;4.65;2.63;;;17.80;92.30;;;;;;5091721;28;20355;-71
2023/07/19 06:22:51;;;;;;;8.10;3.65;;;17.80;92.10;;;;;;5092010;28;20040;-71
2023/07/19 06:25:17;;;;;;;7.35;3.38;;;17.80;92.90;;;;;;5092324;28;20115;-72
2023/07/19 06:27:46;;;;;;;9.82;3.65;;;17.90;93.10;;;;;;5092903;28;20047;-72
2023/07/19 06:30:15;;;;;;;6.65;3.20;;;17.90;93.40;;;;;;5092626;28;20482;-72
2023/07/19 06:32:41;;;;;;;6.70;3.00;;;17.90;93.20;;;;;;5093303;28;20044;-72
2023/07/19 06:35:09;;;;;;;10.00;3.05;;;17.90;93.50;;;;;;5096455;28;20059;-72
2023/07/19 06:37:34;;;;;;;6.00;2.90;;;17.90;93.30;;;;;;5096236;28;20085;-73
2023/07/19 06:40:04;;;;;;;5.82;2.60;;;17.90;93.30;;;;;;5096431;28;20527;-72
2023/07/19 06:42:33;;;;;;;5.88;2.53;;;17.90;93.00;;;;;;5094820;28;20569;-72
2023/07/19 06:44:59;;;;;;;9.13;3.13;;;18.00;93.30;;;;;;5095062;28;20040;-72
2023/07/19 06:47:26;;;;;;;11.00;2.97;;;18.00;93.50;;;;;;5094111;28;20052;-71
2023/07/19 06:49:52;;;;;;;5.70;2.20;;;18.00;93.70;;;;;;5077810;28;20048;-72
2023/07/19 06:52:17;;;;;;;7.38;2.55;;;18.00;93.30;;;;;;5095945;28;20109;-72
2023/07/19 06:54:43;;;;;;;11.50;2.97;;;18.00;93.20;;;;;;5095623;28;20042;-72
2023/07/19 06:57:09;;;;;;;11.95;3.38;;;18.00;93.30;;;;;;5077764;28;20047;-72
2023/07/19 06:59:35;;;;;;;8.05;2.72;;;18.00;93.50;;;;;;5094699;28;20061;-72
2023/07/19 07:02:01;;;;;;;7.30;2.90;;;18.00;93.50;;;;;;5093663;28;20504;-72
2023/07/19 07:04:26;;;;;;;4.82;2.28;;;18.00;93.70;;;;;;5074841;28;20045;-72
2023/07/19 07:06:55;;;;;;;6.38;2.63;;;18.00;93.30;;;;;;5094620;28;20052;-72
2023/07/19 07:09:21;;;;;;;8.70;2.50;;;18.00;93.40;;;;;;5095357;28;20059;-72
2023/07/19 07:11:46;;;;;;;5.95;2.45;;;18.00;93.90;;;;;;5094358;28;20035;-71
2023/07/19 07:14:12;;;;;;;7.45;2.53;;;18.00;93.90;;;;;;5093995;28;20047;-72
2023/07/19 07:16:37;;;;;;;5.40;2.22;;;18.00;94.00;;;;;;5073089;28;20388;-72
2023/07/19 07:19:04;;;;;;;4.57;2.10;;;18.00;94.00;;;;;;5090850;28;20044;-72
2023/07/19 07:21:31;;;;;;;6.93;2.60;;;18.00;93.60;;;;;;5083544;28;20470;-71
2023/07/19 07:23:57;;;;;;;7.53;2.45;;;18.00;93.80;;;;;;5081083;28;20043;-71
2023/07/19 07:26:23;;;;;;;6.68;2.45;;;18.10;93.90;;;;;;5080585;28;20042;-71
2023/07/19 07:28:48;;;;;;;7.32;2.38;;;18.10;94.00;;;;;;5094067;28;20048;-72
2023/07/19 07:31:14;;;;;;;6.80;2.38;;;18.10;93.90;;;;;;5071703;28;20079;-71
2023/07/19 07:33:40;;;;;;;7.60;2.40;;;18.10;93.80;;;;;;5094169;28;20036;-72
2023/07/19 07:36:06;;;;;;;8.15;2.60;;;18.10;94.10;;;;;;5074000;28;20087;-71
2023/07/19 07:38:32;;;;;;;6.72;2.45;;;18.10;94.00;;;;;;5091816;28;20097;-71
2023/07/19 07:41:03;;;;;;;7.25;2.58;;;18.10;93.80;;;;;;5080380;28;20055;-71
2023/07/19 07:43:30;;;;;;;7.95;2.70;;;18.10;94.00;;;;;;5070726;28;20048;-71
2023/07/19 07:45:55;;;;;;;6.90;2.70;;;18.10;94.40;;;;;;5061967;28;20766;-72
2023/07/19 07:48:22;;;;;;;6.55;2.60;;;18.10;94.60;;;;;;5093635;28;20143;-71
2023/07/19 07:50:52;;;;;;;7.25;2.15;;;18.10;94.60;;;;;;5080764;28;20040;-72
2023/07/19 07:53:21;;;;;;;8.18;2.97;;;18.10;94.30;;;;;;5068727;28;20052;-71
2023/07/19 07:55:51;;;;;;;6.72;2.30;;;18.10;94.40;;;;;;5089573;28;20044;-71
2023/07/19 07:58:19;;;;;;;5.78;2.50;;;18.10;94.50;;;;;;5079955;28;20040;-71
2023/07/19 08:00:48;;;;;;;8.23;2.80;;;18.20;94.20;;;;;;5075442;28;20048;-72
2023/07/19 08:03:14;;;;;;;4.95;2.45;;;18.20;94.40;;;;;;5073293;28;20215;-71
2023/07/19 08:05:40;;;;;;;6.20;2.20;;;18.20;94.30;;;;;;5074721;28;20210;-72
2023/07/19 08:08:07;;;;;;;7.60;3.20;;;18.20;94.30;;;;;;5092703;28;20504;-72
2023/07/19 08:10:35;;;;;;;6.35;2.90;;;18.20;94.70;;;;;;5093671;28;20040;-73
2023/07/19 08:13:01;;;;;;;5.93;2.67;;;18.20;95.00;;;;;;5088387;28;20047;-72
2023/07/19 08:15:26;;;;;;;7.10;2.25;;;18.30;95.00;;;;;;5090841;28;20051;-72
2023/07/19 08:17:55;;;;;;;7.13;2.30;;;18.30;94.70;;;;;;5066367;28;20524;-72
2023/07/19 08:20:21;;;;;;;8.32;2.38;;;18.30;94.90;;;;;;5086203;28;20490;-72
2023/07/19 08:22:47;;;;;;;6.43;1.92;;;18.30;94.80;;;;;;5092673;28;20039;-71
2023/07/19 08:25:16;;;;;;;5.72;1.70;;;18.30;94.90;;;;;;5092880;28;20035;-71
2023/07/19 08:27:43;;;;;;;6.22;2.15;;;18.30;94.80;;;;;;5094422;28;20036;-71
2023/07/19 08:30:18;;;;;;;5.57;2.00;;;18.30;94.80;;;;;;5092948;28;20054;-71
2023/07/19 08:32:48;;;;;;;4.97;2.03;;;18.40;95.00;;;;;;5070003;28;20044;-71
2023/07/19 08:35:14;;;;;;;7.05;2.47;;;18.40;95.10;;;;;;5092857;28;20064;-72
2023/07/19 08:37:43;;;;;;;6.60;1.95;;;18.50;95.10;;;;;;5074592;28;20043;-70
2023/07/19 08:40:14;;;;;;;6.13;2.17;;;18.50;95.00;;;;;;5093783;28;20032;-71
2023/07/19 08:42:40;;;;;;;7.00;2.30;;;18.50;95.10;;;;;;5093575;28;20071;-72
2023/07/19 08:45:07;;;;;;;6.00;2.30;;;18.60;94.80;;;;;;5092519;28;20068;-72
2023/07/19 08:47:48;;;;;;;8.43;2.67;;;18.70;94.50;;;;;;5075608;28;20062;-72
2023/07/19 08:50:13;;;;;;;5.07;1.85;;;18.70;94.40;;;;;;5094051;28;20447;-72
2023/07/19 08:52:39;;;;;;;6.22;2.28;;;18.70;94.20;;;;;;5092530;28;20052;-72
2023/07/19 08:55:06;;;;;;;7.30;2.58;;;18.70;94.10;;;;;;5092138;28;20040;-72
2023/07/19 08:57:37;;;;;;;6.55;2.20;;;18.80;94.00;;;;;;5093451;28;20093;-72
2023/07/19 09:00:03;;;;;;;6.10;2.10;;;18.80;94.00;;;;;;5075531;28;20497;-72
2023/07/19 09:02:28;;;;;;;12.02;2.70;;;18.80;93.90;;;;;;5071498;28;20119;-72
2023/07/19 09:05:13;;;;;;;8.13;2.85;;;18.90;94.10;;;;;;5078523;28;20104;-72
2023/07/19 09:07:40;;;;;;;7.43;2.50;;;18.90;94.20;;;;;;5092611;28;20394;-72
2023/07/19 09:10:12;;;;;;;9.50;2.58;;;19.00;94.00;;;;;;5074745;28;20044;-72
2023/07/19 09:12:42;;;;;;;10.63;2.80;;;19.00;93.90;;;;;;5092794;28;20078;-72
2023/07/19 09:15:10;;;;;;;8.68;2.92;;;19.00;94.00;;;;;;5074861;28;20028;-72
2023/07/19 09:17:46;;;;;;;6.50;2.55;;;19.10;94.20;;;;;;5075959;28;20044;-72
2023/07/19 09:20:13;;;;;;;6.50;2.90;;;19.10;94.10;;;;;;5093241;28;20043;-72
2023/07/19 09:22:40;;;;;;;14.00;3.28;;;19.10;94.00;;;;;;5093036;28;20497;-72
2023/07/19 09:25:09;;;;;;;11.23;3.10;;;19.10;93.80;;;;;;5092851;28;20123;-72
2023/07/19 09:27:35;;;;;;;9.50;3.17;;;19.10;93.90;;;;;;5092955;28;20048;-71
2023/07/19 09:30:04;;;;;;;7.85;2.67;;;19.20;94.10;;;;;;5093814;28;20048;-72
2023/07/19 09:32:30;;;;;;;6.68;2.60;;;19.20;94.20;;;;;;5092705;28;20063;-71
2023/07/19 09:34:57;;;;;;;6.80;2.40;;;19.20;94.30;;;;;;5092308;28;20035;-72
2023/07/19 09:37:24;;;;;;;7.18;2.70;;;19.30;94.50;;;;;;5092663;28;20502;-72
2023/07/19 09:39:52;;;;;;;8.35;3.20;;;19.40;94.20;;;;;;5073212;28;20035;-72
2023/07/19 09:42:19;;;;;;;9.15;2.60;;;19.50;94.00;;;;;;5091824;28;20083;-72
2023/07/19 09:44:46;;;;;;;7.93;2.72;;;19.50;93.70;;;;;;5073668;28;20048;-72
2023/07/19 09:47:13;;;;;;;5.30;2.15;;;19.70;93.40;;;;;;5073924;28;20056;-72
2023/07/19 09:49:39;;;;;;;7.55;2.15;;;19.80;93.40;;;;;;5092009;28;20105;-72
2023/07/19 09:52:05;;;;;;;8.57;1.90;;;19.80;93.10;;;;;;5092790;28;20056;-72
2023/07/19 09:54:32;;;;;;;6.85;2.03;;;19.90;92.90;;;;;;5071418;28;20082;-72
2023/07/19 09:56:58;;;;;;;8.43;2.08;;;20.00;92.60;;;;;;5084603;28;20524;-72
2023/07/19 09:59:29;;;;;;;5.95;1.95;;;20.10;92.40;;;;;;5092300;28;20517;-72
2023/07/19 10:01:56;;;;;;;5.32;1.70;;;20.20;92.70;;;;;;5092761;28;20044;-72
2023/07/19 10:04:26;;;;;;;6.10;1.67;;;20.30;92.60;;;;;;5091846;28;20462;-72
2023/07/19 10:07:07;;;;;;;4.85;1.52;;;20.40;92.30;;;;;;5092190;28;20087;-72
2023/07/19 10:09:38;;;;;;;8.07;1.60;;;20.50;91.90;;;;;;5095906;28;20040;-72
2023/07/19 10:12:23;;;;;;;10.63;1.60;;;20.50;91.50;;;;;;5095458;28;20090;-72
2023/07/19 10:14:53;;;;;;;5.75;1.42;;;20.60;91.20;;;;;;5060432;28;20052;-72
2023/07/19 10:17:18;;;;;;;3.40;1.30;;;20.60;91.30;;;;;;5095572;28;20086;-72
2023/07/19 10:20:12;;;;;;;4.35;1.40;;;20.60;91.30;;;;;;5095252;28;20040;-72
2023/07/19 10:23:00;;;;;;;5.13;1.50;;;20.60;91.20;;;;;;5076488;28;20036;-72
2023/07/19 10:25:37;;;;;;;4.00;1.30;;;20.60;91.50;;;;;;5095986;28;20048;-72
2023/07/19 10:28:10;;;;;;;4.10;1.23;;;20.60;91.60;;;;;;5088813;28;20044;-72
2023/07/19 10:30:50;;;;;;;5.80;1.55;;;20.60;91.70;;;;;;5080288;28;20066;-72
2023/07/19 10:33:20;;;;;;;5.25;1.70;;;20.60;91.90;;;;;;5081307;28;20064;-72
2023/07/19 10:35:47;;;;;;;7.00;1.40;;;20.60;92.00;;;;;;5063235;28;20051;-71
2023/07/19 10:38:15;;;;;;;4.60;1.40;;;20.60;92.00;;;;;;5085338;28;20051;-72
2023/07/19 10:40:45;;;;;;;4.05;1.30;;;20.50;92.10;;;;;;5076004;28;20124;-71
2023/07/19 10:43:12;;;;;;;4.68;1.45;;;20.60;92.00;;;;;;5061706;28;20109;-72
2023/07/19 10:45:41;;;;;;;4.10;1.40;;;20.60;92.00;;;;;;5093187;28;20077;-72
2023/07/19 10:48:07;;;;;;;5.68;1.58;;;20.60;92.00;;;;;;5101683;28;20506;-71
2023/07/19 10:50:33;;;;;;;4.90;1.52;;;20.60;91.90;;;;;;5077304;28;20375;-71
2023/07/19 10:53:02;;;;;;;3.45;1.17;;;20.60;91.70;;;;;;5092817;28;20051;-71
2023/07/19 10:55:28;;;;;;;5.50;1.50;;;20.60;91.80;;;;;;5075627;28;20089;-71
2023/07/19 10:57:54;;;;;;;5.22;1.73;;;20.70;91.70;;;;;;5083334;28;20048;-72
2023/07/19 11:00:24;;;;;;;7.38;1.85;;;20.70;91.70;;;;;;5077576;28;20095;-71
2023/07/19 11:02:53;;;;;;;7.05;1.77;;;20.70;91.80;;;;;;5087884;28;20149;-72
2023/07/19 11:05:19;;;;;;;4.68;1.58;;;20.80;92.10;;;;;;5090522;28;20086;-71
2023/07/19 11:07:48;;;;;;;4.10;1.30;;;20.80;92.00;;;;;;5094853;28;20052;-72
2023/07/19 11:10:14;;;;;;;7.32;1.83;;;20.90;91.70;;;;;;5087662;28;20047;-72
2023/07/19 11:12:41;;;;;;;5.20;1.58;;;21.00;91.60;;;;;;5083214;28;20048;-71
2023/07/19 11:15:08;;;;;;;4.88;1.77;;;21.10;91.60;;;;;;5094346;28;20051;-72
2023/07/19 11:17:36;;;;;;;4.15;1.45;;;21.10;91.20;;;;;;5087634;28;20040;-72
2023/07/19 11:20:03;;;;;;;4.28;1.38;;;21.20;91.20;;;;;;5088590;28;20128;-72
2023/07/19 11:22:29;;;;;;;3.88;1.02;;;21.30;91.20;;;;;;5074283;28;20067;-74
2023/07/19 11:24:55;;;;;;;4.30;1.35;;;21.30;91.20;;;;;;5095025;28;20040;-73
2023/07/19 11:27:36;;;;;;;4.75;1.20;;;21.30;91.20;;;;;;5090711;28;20052;-74
2023/07/19 11:30:03;;;;;;;5.70;1.67;;;21.30;91.10;;;;;;5081822;28;20045;-74
2023/07/19 11:32:29;;;;;;;3.83;1.35;;;21.40;91.30;;;;;;5090967;28;20059;-74
2023/07/19 11:34:59;;;;;;;6.18;1.83;;;21.40;91.20;;;;;;5093163;28;20457;-74
2023/07/19 11:37:32;;;;;;;4.25;1.23;;;21.40;91.10;;;;;;5091624;28;20043;-74
2023/07/19 11:40:04;;;;;;;3.25;1.13;;;21.40;91.00;;;;;;5090800;28;20036;-73
2023/07/19 11:42:43;;;;;;;7.22;1.58;;;21.50;91.00;;;;;;5091431;28;20111;-74
2023/07/19 11:45:20;;;;;;;7.13;1.92;;;21.50;91.10;;;;;;5086732;28;20040;-73
2023/07/19 11:47:49;;;;;;;6.93;1.73;;;21.50;91.10;;;;;;5084396;28;20521;-74
2023/07/19 11:50:15;;;;;;;7.05;1.67;;;21.50;91.20;;;;;;5088270;28;20048;-73
2023/07/19 11:52:43;;;;;;;5.53;1.75;;;21.50;91.30;;;;;;5076245;28;20048;-74
2023/07/19 11:55:11;;;;;;;6.30;1.75;;;21.40;91.40;;;;;;5093650;28;20048;-74
2023/07/19 11:57:38;;;;;;;5.03;1.65;;;21.40;91.50;;;;;;5072156;28;20166;-74
2023/07/19 12:00:05;;;;;;;4.40;1.25;;;21.40;91.60;;;;;;5086192;28;20075;-74
2023/07/19 12:02:31;;;;;;;4.32;1.55;;;21.40;91.60;;;;;;5089965;28;20044;-74
2023/07/19 12:04:56;;;;;;;5.80;1.50;;;21.40;91.30;;;;;;5084616;28;20044;-74
2023/07/19 12:07:22;;;;;;;6.13;1.50;;;21.40;90.90;;;;;;5072408;28;20555;-74
2023/07/19 12:09:48;;;;;;;3.83;1.23;;;21.50;90.10;;;;;;5088543;28;20078;-75
2023/07/19 12:12:13;;;;;;;5.55;1.50;;;21.50;90.50;;;;;;5092175;28;20039;-74
2023/07/19 12:14:39;;;;;;;5.55;1.50;;;21.50;90.40;;;;;;5081707;28;20044;-74
2023/07/19 12:17:06;;;;;;;4.95;1.33;;;21.50;90.30;;;;;;5088998;28;20040;-74
2023/07/19 12:19:33;;;;;;;4.22;1.40;;;21.60;89.90;;;;;;5079380;28;20048;-74
2023/07/19 12:21:59;;;;;;;3.78;1.15;;;21.60;89.20;;;;;;5067050;28;20041;-74
2023/07/19 12:24:24;;;;;;;2.95;0.90;;;21.70;88.70;;;;;;5055854;28;20461;-75
2023/07/19 12:26:50;;;;;;;4.50;1.10;;;21.70;89.20;;;;;;5091859;28;20039;-74
2023/07/19 12:29:16;;;;;;;4.20;1.10;;;21.80;88.50;;;;;;5075070;28;20040;-74
2023/07/19 12:31:41;;;;;;;6.07;1.45;;;21.80;88.30;;;;;;5088617;28;20040;-74
2023/07/19 12:34:07;;;;;;;4.40;1.30;;;21.80;87.70;;;;;;5091022;28;20036;-74
2023/07/19 12:36:32;;;;;;;3.50;1.08;;;21.80;87.90;;;;;;5073163;28;20448;-75
2023/07/19 12:38:58;;;;;;;3.08;1.02;;;21.80;88.10;;;;;;5083773;28;20052;-74
2023/07/19 12:41:25;;;;;;;5.63;1.48;;;21.80;87.10;;;;;;5090650;28;20039;-73
2023/07/19 12:43:50;;;;;;;3.60;1.17;;;21.80;87.60;;;;;;5091463;28;20043;-74